Time;durP1;ratioP1;P1;durP2;ratioP2;P2;SDS_P1;SDS_P2;PMS_P1;PMS_P2;Temp;Humidity;BMP_temperature;BMP_pressure;BME280_temperature;BME280_humidity;BME280_pressure;Samples;Min_cycle;Max_cycle;Signal;HPM_P1;HPM_P2
2022/05/07 00:00:38;;;;;;;10.93;5.35;;;15.50;99.90;;;;;;5090765;28;20020;-54
2022/05/07 00:03:04;;;;;;;10.63;5.30;;;15.40;99.90;;;;;;5090268;28;20031;-55
2022/05/07 00:05:31;;;;;;;9.35;4.97;;;15.40;99.90;;;;;;5090133;28;20085;-55
2022/05/07 00:07:57;;;;;;;10.48;4.95;;;15.50;99.90;;;;;;5089923;28;20077;-55
2022/05/07 00:10:23;;;;;;;8.48;5.57;;;15.40;99.90;;;;;;5090561;28;20024;-54
2022/05/07 00:12:49;;;;;;;10.88;5.47;;;15.30;99.90;;;;;;5090225;28;20485;-56
2022/05/07 00:15:14;;;;;;;7.20;5.25;;;15.30;99.90;;;;;;5090343;28;20520;-55
2022/05/07 00:20:24;;;;;;;8.93;4.93;;;15.20;99.90;;;;;;5090489;28;20255;-55
2022/05/07 00:22:53;;;;;;;7.22;5.30;;;15.20;99.90;;;;;;5090538;28;20124;-55
2022/05/07 00:25:21;;;;;;;7.65;4.68;;;15.20;99.90;;;;;;5089844;28;20095;-55
2022/05/07 00:27:47;;;;;;;6.90;4.70;;;15.20;99.90;;;;;;5090183;28;20107;-55
2022/05/07 00:30:15;;;;;;;10.07;4.80;;;15.10;99.90;;;;;;5090245;28;20100;-55
2022/05/07 00:32:41;;;;;;;10.68;4.63;;;14.90;99.90;;;;;;5090309;28;20082;-55
2022/05/07 00:35:09;;;;;;;11.38;5.20;;;14.80;99.90;;;;;;5089712;28;20669;-54
2022/05/07 00:37:34;;;;;;;7.78;4.85;;;14.70;99.90;;;;;;5089922;28;20016;-55
2022/05/07 00:40:04;;;;;;;7.40;4.70;;;14.60;99.90;;;;;;5090009;28;20028;-55
2022/05/07 00:42:30;;;;;;;7.55;4.75;;;14.60;99.90;;;;;;5089901;28;20399;-55
2022/05/07 00:44:56;;;;;;;7.93;4.30;;;14.60;99.90;;;;;;5089979;28;20028;-54
2022/05/07 00:47:23;;;;;;;5.25;4.15;;;14.60;99.90;;;;;;5091829;28;20160;-54
2022/05/07 00:49:56;;;;;;;7.38;3.97;;;14.50;99.90;;;;;;5093256;28;20024;-54
2022/05/07 00:52:22;;;;;;;12.30;3.67;;;14.50;99.90;;;;;;5093648;28;20024;-54
2022/05/07 00:54:48;;;;;;;7.68;4.25;;;14.40;99.90;;;;;;5093498;28;20032;-54
2022/05/07 00:57:15;;;;;;;5.47;3.70;;;14.30;99.90;;;;;;5093256;28;20501;-55
2022/05/07 00:59:41;;;;;;;6.72;4.30;;;14.40;99.90;;;;;;5093261;28;20020;-54
2022/05/07 01:02:08;;;;;;;7.97;4.25;;;14.40;99.90;;;;;;5093277;28;20024;-54
2022/05/07 01:04:35;;;;;;;8.02;4.50;;;14.40;99.90;;;;;;5093038;28;20366;-54
2022/05/07 01:07:02;;;;;;;7.03;3.90;;;14.50;99.90;;;;;;5093133;28;20489;-54
2022/05/07 01:09:28;;;;;;;8.35;4.15;;;14.60;99.90;;;;;;5093242;28;20077;-54
2022/05/07 01:11:55;;;;;;;6.90;3.88;;;14.60;99.90;;;;;;5093470;28;20439;-54
2022/05/07 01:14:20;;;;;;;11.13;4.65;;;14.60;99.90;;;;;;5092610;28;20085;-54
2022/05/07 01:16:46;;;;;;;5.60;4.68;;;14.50;99.90;;;;;;5092819;28;20028;-54
2022/05/07 01:19:12;;;;;;;8.63;4.90;;;14.60;99.90;;;;;;5093027;28;20502;-54
2022/05/07 01:21:37;;;;;;;7.00;4.60;;;14.50;99.90;;;;;;5091474;28;20066;-54
2022/05/07 01:24:04;;;;;;;9.43;4.75;;;14.40;99.90;;;;;;5092681;28;20316;-55
2022/05/07 01:26:29;;;;;;;9.77;5.47;;;14.30;99.90;;;;;;5092459;28;20280;-55
2022/05/07 01:29:01;;;;;;;9.00;4.72;;;14.30;99.90;;;;;;5092551;28;20088;-54
2022/05/07 01:31:27;;;;;;;7.60;4.68;;;14.20;99.90;;;;;;5092414;28;20028;-55
2022/05/07 01:33:53;;;;;;;7.88;5.05;;;14.20;99.90;;;;;;5092455;28;20024;-55
2022/05/07 01:36:19;;;;;;;8.43;5.03;;;14.20;99.90;;;;;;5092415;28;20506;-55
2022/05/07 01:38:45;;;;;;;68.40;24.98;;;14.10;99.90;;;;;;5092440;28;20064;-56
2022/05/07 01:41:11;;;;;;;132.25;10.20;;;14.10;99.90;;;;;;5092781;28;20107;-55
2022/05/07 01:43:38;;;;;;;9.18;5.53;;;14.10;99.90;;;;;;5092741;28;20098;-55
2022/05/07 01:46:03;;;;;;;159.40;90.72;;;14.10;99.90;;;;;;5092520;28;20024;-56
2022/05/07 01:48:29;;;;;;;7.35;5.35;;;14.00;99.90;;;;;;5092284;28;20027;-55
2022/05/07 01:50:55;;;;;;;8.25;5.63;;;14.00;99.90;;;;;;5092465;28;20073;-54
2022/05/07 01:53:22;;;;;;;11.07;6.00;;;13.90;99.90;;;;;;5092309;28;20067;-55
2022/05/07 01:55:48;;;;;;;9.75;5.53;;;13.80;99.90;;;;;;5091907;28;20374;-55
2022/05/07 01:58:14;;;;;;;12.43;5.95;;;13.80;99.90;;;;;;5092617;28;20023;-55
2022/05/07 02:00:42;;;;;;;11.77;6.22;;;13.80;99.90;;;;;;5093332;28;20374;-55
2022/05/07 02:03:08;;;;;;;9.02;5.78;;;13.80;99.90;;;;;;5092668;28;20044;-54
2022/05/07 02:05:35;;;;;;;12.35;6.10;;;13.80;99.90;;;;;;5091540;28;20031;-54
2022/05/07 02:08:01;;;;;;;9.52;5.72;;;13.70;99.90;;;;;;5091545;28;20027;-54
2022/05/07 02:10:27;;;;;;;12.45;6.68;;;13.70;99.90;;;;;;5092022;28;20027;-54
2022/05/07 02:12:53;;;;;;;15.07;6.50;;;13.70;99.90;;;;;;5091791;28;20316;-55
2022/05/07 02:15:19;;;;;;;14.48;6.30;;;13.80;99.90;;;;;;5091610;28;20477;-54
2022/05/07 02:17:44;;;;;;;12.02;7.03;;;13.80;99.90;;;;;;5091955;28;20381;-54
2022/05/07 02:20:10;;;;;;;14.50;7.40;;;13.90;99.90;;;;;;5092223;28;20031;-54
2022/05/07 02:22:37;;;;;;;14.13;7.82;;;13.90;99.90;;;;;;5092107;28;20107;-55
2022/05/07 02:25:04;;;;;;;14.95;7.43;;;13.80;99.90;;;;;;5091809;28;20027;-55
2022/05/07 02:27:30;;;;;;;10.65;7.20;;;13.80;99.90;;;;;;5091594;28;20028;-55
2022/05/07 02:29:59;;;;;;;145.45;91.40;;;13.70;99.90;;;;;;5091609;28;20481;-55
2022/05/07 02:32:24;;;;;;;14.73;6.97;;;13.60;99.90;;;;;;5091696;28;20516;-55
2022/05/07 02:34:50;;;;;;;13.20;7.25;;;13.60;99.90;;;;;;5091409;28;20066;-55
2022/05/07 02:37:15;;;;;;;13.15;7.47;;;13.50;99.90;;;;;;5091523;28;20047;-56
2022/05/07 02:39:41;;;;;;;12.38;7.07;;;13.40;99.90;;;;;;5091355;28;20096;-55
2022/05/07 02:44:51;;;;;;;11.90;7.55;;;13.50;99.90;;;;;;5092184;28;20039;-54
2022/05/07 02:47:16;;;;;;;11.40;7.50;;;13.40;99.90;;;;;;5091967;28;20028;-55
2022/05/07 02:49:42;;;;;;;16.27;8.13;;;13.30;99.90;;;;;;5091744;28;20039;-55
2022/05/07 02:52:08;;;;;;;14.68;8.20;;;13.30;99.90;;;;;;5092155;28;20465;-54
2022/05/07 02:54:33;;;;;;;13.00;8.32;;;13.30;99.90;;;;;;5090921;28;20427;-54
2022/05/07 02:56:59;;;;;;;15.07;8.38;;;13.20;99.90;;;;;;5091002;28;20028;-55
2022/05/07 02:59:25;;;;;;;18.40;9.77;;;13.20;99.90;;;;;;5090655;28;20031;-55
2022/05/07 03:01:51;;;;;;;15.48;9.68;;;13.20;99.90;;;;;;5091752;28;20034;-55
2022/05/07 03:04:20;;;;;;;16.58;9.60;;;13.20;99.90;;;;;;5091630;28;20078;-54
2022/05/07 03:06:46;;;;;;;17.17;9.90;;;13.20;99.90;;;;;;5091231;28;20085;-54
2022/05/07 03:09:11;;;;;;;16.23;10.07;;;13.20;99.90;;;;;;5090329;28;20605;-54
2022/05/07 03:11:37;;;;;;;17.58;10.40;;;13.20;99.90;;;;;;5091887;28;20106;-54
2022/05/07 03:14:03;;;;;;;16.42;10.13;;;13.10;99.90;;;;;;5090614;28;20055;-55
2022/05/07 03:16:30;;;;;;;17.98;10.35;;;13.20;99.90;;;;;;5090395;28;20095;-54
2022/05/07 03:18:56;;;;;;;18.02;10.82;;;13.10;99.90;;;;;;5090418;28;20538;-54
2022/05/07 03:21:21;;;;;;;17.38;11.48;;;13.10;99.90;;;;;;5090844;28;20015;-54
2022/05/07 03:23:47;;;;;;;21.50;11.40;;;13.10;99.90;;;;;;5090480;28;20030;-55
2022/05/07 03:26:13;;;;;;;19.50;10.82;;;13.10;99.90;;;;;;5090509;28;20036;-54
2022/05/07 03:28:42;;;;;;;22.02;12.30;;;13.00;99.90;;;;;;5091916;28;20092;-53
2022/05/07 03:31:07;;;;;;;21.05;12.07;;;13.00;99.90;;;;;;5092388;28;20026;-54
2022/05/07 03:33:33;;;;;;;23.65;13.18;;;12.90;99.90;;;;;;5092302;28;20024;-54
2022/05/07 03:35:59;;;;;;;20.80;12.20;;;12.80;99.90;;;;;;5092654;28;20504;-55
2022/05/07 03:38:25;;;;;;;23.33;12.55;;;12.80;99.90;;;;;;5091808;28;20055;-55
2022/05/07 03:40:51;;;;;;;21.15;13.32;;;12.90;99.90;;;;;;5089554;28;20685;-54
2022/05/07 03:43:16;;;;;;;22.02;13.70;;;12.90;99.90;;;;;;5089843;28;20016;-54
2022/05/07 03:45:42;;;;;;;25.15;14.05;;;12.90;99.90;;;;;;5091350;28;20111;-55
2022/05/07 03:48:09;;;;;;;22.90;14.02;;;12.80;99.90;;;;;;5091119;28;20057;-54
2022/05/07 03:50:35;;;;;;;23.70;14.43;;;12.80;99.90;;;;;;5092080;28;20278;-54
2022/05/07 03:55:45;;;;;;;27.60;15.45;;;12.80;99.90;;;;;;5092138;28;20085;-54
2022/05/07 03:58:11;;;;;;;28.65;14.98;;;12.80;99.90;;;;;;5092090;28;20024;-53
2022/05/07 04:00:39;;;;;;;28.00;15.60;;;12.80;99.90;;;;;;5091968;28;20024;-54
2022/05/07 04:03:05;;;;;;;29.15;16.23;;;12.80;99.90;;;;;;5090730;28;20504;-54
2022/05/07 04:05:31;;;;;;;27.00;15.88;;;12.90;99.90;;;;;;5091021;28;20024;-54
2022/05/07 04:07:57;;;;;;;26.98;16.35;;;12.90;99.90;;;;;;5089988;28;20056;-55
2022/05/07 04:10:22;;;;;;;33.13;18.13;;;13.00;99.90;;;;;;5090452;28;20527;-54
2022/05/07 04:12:51;;;;;;;34.83;17.92;;;13.10;99.90;;;;;;5090690;28;20052;-54
2022/05/07 04:15:17;;;;;;;32.97;17.88;;;13.10;99.90;;;;;;5090625;28;20461;-54
2022/05/07 04:17:43;;;;;;;30.85;17.95;;;13.20;99.90;;;;;;5091325;28;20020;-53
2022/05/07 04:20:09;;;;;;;29.48;17.48;;;13.10;99.90;;;;;;5091745;28;20435;-54
2022/05/07 04:22:35;;;;;;;33.03;18.15;;;13.00;99.90;;;;;;5094555;28;20016;-55
2022/05/07 04:25:02;;;;;;;32.20;19.17;;;13.00;99.90;;;;;;5095534;28;20043;-55
2022/05/07 04:27:27;;;;;;;30.35;18.70;;;13.00;99.90;;;;;;5094885;28;20023;-55
2022/05/07 04:29:53;;;;;;;31.92;19.13;;;13.00;99.90;;;;;;5094145;28;20392;-54
2022/05/07 04:32:19;;;;;;;1290.38;99.47;;;13.10;99.90;;;;;;5094062;28;20028;-55
2022/05/07 04:34:45;;;;;;;25.10;12.80;;;13.10;99.90;;;;;;5094150;28;20052;-56
2022/05/07 04:37:10;;;;;;;33.58;20.08;;;13.00;99.90;;;;;;5094111;28;20028;-55
2022/05/07 04:39:36;;;;;;;158.38;28.67;;;12.90;99.90;;;;;;5095689;28;20031;-55
2022/05/07 04:42:02;;;;;;;27.45;12.57;;;12.90;99.90;;;;;;5095195;28;20060;-55
2022/05/07 04:44:28;;;;;;;36.72;21.92;;;13.00;99.90;;;;;;5094069;28;20032;-54
2022/05/07 04:46:57;;;;;;;37.88;22.45;;;13.00;99.90;;;;;;5094228;28;20089;-55
2022/05/07 04:49:23;;;;;;;39.10;22.73;;;12.90;99.90;;;;;;5094237;28;20559;-54
2022/05/07 04:51:52;;;;;;;45.80;22.25;;;12.90;99.90;;;;;;5093999;28;20028;-55
2022/05/07 04:54:19;;;;;;;41.47;21.85;;;13.00;99.90;;;;;;5093100;28;20031;-54
2022/05/07 04:56:46;;;;;;;38.80;22.08;;;13.10;99.90;;;;;;5093499;28;20099;-54
2022/05/07 04:59:13;;;;;;;39.70;23.50;;;13.10;99.90;;;;;;5093334;28;20024;-54
2022/05/07 05:01:38;;;;;;;50.50;31.08;;;13.10;99.90;;;;;;5093084;28;20077;-54
2022/05/07 05:04:04;;;;;;;38.15;22.05;;;13.20;99.90;;;;;;5093345;28;20024;-55
2022/05/07 05:06:30;;;;;;;37.75;22.38;;;13.30;99.90;;;;;;5091235;28;20020;-54
2022/05/07 05:08:55;;;;;;;38.00;21.92;;;13.20;99.90;;;;;;5093497;28;20021;-54
2022/05/07 05:11:21;;;;;;;85.22;29.65;;;13.10;99.90;;;;;;5092855;28;20020;-54
2022/05/07 05:13:47;;;;;;;38.67;22.10;;;13.10;99.90;;;;;;5091048;28;20333;-54
2022/05/07 05:16:12;;;;;;;108.22;71.15;;;13.10;99.90;;;;;;5092757;28;20039;-54
2022/05/07 05:18:38;;;;;;;43.45;21.13;;;13.30;99.90;;;;;;5092732;28;20020;-54
2022/05/07 05:21:04;;;;;;;37.58;22.42;;;13.40;99.90;;;;;;5092437;28;20095;-54
2022/05/07 05:23:30;;;;;;;41.08;22.10;;;13.60;99.90;;;;;;5092312;28;20384;-54
2022/05/07 05:25:56;;;;;;;97.82;24.83;;;13.60;99.90;;;;;;5092682;28;20043;-54
2022/05/07 05:28:22;;;;;;;37.10;22.30;;;13.70;99.90;;;;;;5092355;28;20032;-54
2022/05/07 05:30:52;;;;;;;909.95;128.77;;;13.90;99.90;;;;;;5092562;28;20038;-54
2022/05/07 05:33:21;;;;;;;39.63;22.38;;;13.90;99.90;;;;;;5092303;28;20028;-54
2022/05/07 05:35:47;;;;;;;40.70;22.67;;;13.80;99.90;;;;;;5091634;28;20034;-54
2022/05/07 05:38:15;;;;;;;41.65;22.38;;;14.00;99.90;;;;;;5091930;28;20032;-54
2022/05/07 05:40:44;;;;;;;36.67;20.73;;;14.00;99.90;;;;;;5092270;28;20074;-54
2022/05/07 05:43:10;;;;;;;37.35;22.10;;;14.00;99.90;;;;;;5091845;28;20028;-54
2022/05/07 05:45:36;;;;;;;40.22;21.23;;;14.00;99.90;;;;;;5091842;28;20103;-54
2022/05/07 05:48:03;;;;;;;35.13;21.58;;;13.90;99.90;;;;;;5091915;28;20065;-54
2022/05/07 05:50:30;;;;;;;75.25;23.63;;;13.70;99.90;;;;;;5091683;28;20024;-54
2022/05/07 05:52:56;;;;;;;32.85;20.80;;;13.80;99.90;;;;;;5092090;28;20114;-54
2022/05/07 05:55:21;;;;;;;38.50;22.00;;;14.00;99.90;;;;;;5090442;28;20111;-54
2022/05/07 05:57:48;;;;;;;33.78;20.20;;;14.20;99.90;;;;;;5091716;28;20123;-54
2022/05/07 06:00:15;;;;;;;38.83;21.40;;;14.30;99.90;;;;;;5091774;28;20043;-55
2022/05/07 06:02:43;;;;;;;32.03;19.85;;;14.30;99.90;;;;;;5090341;28;20032;-54
2022/05/07 06:05:10;;;;;;;40.25;22.27;;;14.10;99.90;;;;;;5091587;28;20028;-54
2022/05/07 06:07:35;;;;;;;38.78;20.90;;;14.10;99.90;;;;;;5091505;28;20084;-54
2022/05/07 06:10:02;;;;;;;34.70;21.08;;;14.20;99.90;;;;;;5091586;28;20032;-54
2022/05/07 06:12:28;;;;;;;35.30;20.40;;;14.30;99.90;;;;;;5091924;28;20515;-54
2022/05/07 06:14:54;;;;;;;32.00;20.35;;;14.40;99.90;;;;;;5091499;28;20028;-54
2022/05/07 06:17:20;;;;;;;34.35;21.23;;;14.30;99.90;;;;;;5091146;28;20401;-54
2022/05/07 06:19:45;;;;;;;35.70;20.38;;;14.30;99.90;;;;;;5091123;28;20020;-54
2022/05/07 06:22:11;;;;;;;35.30;20.70;;;14.30;99.90;;;;;;5091532;28;20411;-54
2022/05/07 06:27:33;;;;;;;38.08;21.25;;;14.30;99.90;;;;;;5091049;28;20062;-54
2022/05/07 06:30:03;;;;;;;36.88;21.15;;;14.30;99.90;;;;;;5091052;28;20389;-54
2022/05/07 06:32:37;;;;;;;37.15;21.13;;;14.30;99.90;;;;;;5091238;28;20115;-54
2022/05/07 06:35:04;;;;;;;38.13;21.58;;;14.50;99.90;;;;;;5090627;28;20051;-54
2022/05/07 06:37:34;;;;;;;40.55;22.35;;;14.50;99.90;;;;;;5090705;28;20024;-54
2022/05/07 06:40:00;;;;;;;36.05;21.50;;;14.40;99.90;;;;;;5090736;28;20086;-54
2022/05/07 06:42:26;;;;;;;36.30;20.73;;;14.50;99.90;;;;;;5090893;28;20103;-54
2022/05/07 06:44:52;;;;;;;34.53;20.90;;;14.70;99.90;;;;;;5089867;28;20543;-54
2022/05/07 06:47:18;;;;;;;37.63;21.20;;;14.80;99.90;;;;;;5091041;28;20020;-54
2022/05/07 06:49:44;;;;;;;39.15;20.30;;;14.80;99.90;;;;;;5090783;28;20148;-54
2022/05/07 06:52:10;;;;;;;85.93;25.95;;;14.90;99.90;;;;;;5090934;28;20384;-54
2022/05/07 06:54:36;;;;;;;39.75;21.58;;;14.90;99.90;;;;;;5089120;28;20028;-54
2022/05/07 06:57:06;;;;;;;35.33;20.98;;;14.90;99.90;;;;;;5090603;28;20012;-54
2022/05/07 06:59:32;;;;;;;29.10;17.95;;;15.10;99.90;;;;;;5090423;28;20436;-54
2022/05/07 07:01:58;;;;;;;31.10;18.38;;;15.20;99.90;;;;;;5090649;28;20024;-54
2022/05/07 07:04:24;;;;;;;31.40;17.65;;;15.50;99.90;;;;;;5090345;28;20024;-54
2022/05/07 07:06:50;;;;;;;27.33;16.88;;;15.80;99.90;;;;;;5090312;28;20024;-55
2022/05/07 07:09:17;;;;;;;29.38;17.25;;;16.10;99.90;;;;;;5090830;28;20153;-55
2022/05/07 07:11:42;;;;;;;30.25;18.08;;;16.50;99.90;;;;;;5090295;28;20028;-54
2022/05/07 07:14:08;;;;;;;27.45;18.05;;;16.20;99.90;;;;;;5090028;28;20046;-54
2022/05/07 07:16:36;;;;;;;33.20;18.95;;;16.10;99.90;;;;;;5090004;28;20381;-54
2022/05/07 07:19:03;;;;;;;29.88;18.00;;;16.30;99.90;;;;;;5090126;28;20080;-54
2022/05/07 07:21:29;;;;;;;33.78;18.52;;;16.40;99.90;;;;;;5090429;28;20027;-54
2022/05/07 07:23:54;;;;;;;30.00;18.33;;;16.30;99.90;;;;;;5090230;28;20300;-54
2022/05/07 07:26:20;;;;;;;27.88;17.95;;;16.20;99.90;;;;;;5090237;28;20475;-55
2022/05/07 07:28:46;;;;;;;31.42;17.88;;;16.20;99.90;;;;;;5090098;28;20028;-55
2022/05/07 07:31:12;;;;;;;32.78;19.65;;;16.20;99.90;;;;;;5090152;28;20074;-55
2022/05/07 07:33:39;;;;;;;33.58;21.65;;;16.20;99.90;;;;;;5088816;28;20044;-55
2022/05/07 07:36:06;;;;;;;34.28;18.63;;;16.40;99.90;;;;;;5089802;28;20443;-55
2022/05/07 07:38:32;;;;;;;29.67;19.23;;;16.40;99.90;;;;;;5089687;28;20028;-54
2022/05/07 07:40:57;;;;;;;30.55;18.73;;;16.30;99.90;;;;;;5090214;28;20099;-54
2022/05/07 07:43:23;;;;;;;29.38;18.77;;;16.70;99.90;;;;;;5089536;28;20383;-55
2022/05/07 07:48:33;;;;;;;35.90;19.45;;;17.20;99.90;;;;;;5090016;28;20504;-55
2022/05/07 07:50:59;;;;;;;34.58;17.95;;;17.10;99.90;;;;;;5090371;28;20024;-55
2022/05/07 07:53:25;;;;;;;31.65;19.50;;;17.10;99.90;;;;;;5089841;28;20066;-55
2022/05/07 07:55:52;;;;;;;35.78;20.90;;;17.00;99.90;;;;;;5090948;28;20024;-55
2022/05/07 07:58:18;;;;;;;33.10;18.55;;;17.20;99.90;;;;;;5093871;28;20085;-55
2022/05/07 08:00:46;;;;;;;28.50;18.08;;;17.40;99.90;;;;;;5094134;28;20016;-55
2022/05/07 08:03:15;;;;;;;29.67;18.35;;;17.60;99.90;;;;;;5094394;28;20027;-55
2022/05/07 08:05:43;;;;;;;32.63;19.30;;;17.80;99.90;;;;;;5093563;28;20036;-55
2022/05/07 08:13:41;;;;;;;32.90;19.10;;;17.20;99.90;;;;;;5094371;28;20039;-55
2022/05/07 08:16:08;;;;;;;32.13;19.05;;;17.20;99.90;;;;;;5093666;28;20073;-55
2022/05/07 08:18:35;;;;;;;25.70;17.90;;;17.40;99.90;;;;;;5093796;28;20012;-55
2022/05/07 08:21:01;;;;;;;26.08;17.80;;;17.40;99.90;;;;;;5094201;28;20515;-55
2022/05/07 08:23:26;;;;;;;30.80;19.00;;;17.60;99.90;;;;;;5093594;28;20023;-54
2022/05/07 08:25:53;;;;;;;32.00;18.88;;;17.70;99.90;;;;;;5093789;28;20119;-55
2022/05/07 08:28:19;;;;;;;31.85;18.10;;;17.90;99.90;;;;;;5093231;28;20035;-54
2022/05/07 08:30:45;;;;;;;29.85;18.27;;;18.30;99.90;;;;;;5093569;28;20381;-54
2022/05/07 08:33:11;;;;;;;29.35;17.95;;;18.70;99.90;;;;;;5093850;28;20031;-54
2022/05/07 08:35:37;;;;;;;33.95;17.42;;;19.40;99.90;;;;;;5093242;28;20074;-55
2022/05/07 08:38:03;;;;;;;25.65;17.30;;;19.60;99.90;;;;;;5092626;28;20025;-55
2022/05/07 08:40:29;;;;;;;31.50;17.88;;;19.40;99.90;;;;;;5093468;28;20034;-54
2022/05/07 08:42:56;;;;;;;31.33;17.02;;;18.80;99.90;;;;;;5093353;28;20477;-54
2022/05/07 08:45:22;;;;;;;25.77;17.52;;;18.50;99.90;;;;;;5093437;28;20123;-54
2022/05/07 08:47:52;;;;;;;26.00;17.88;;;18.60;99.90;;;;;;5092281;28;20314;-55
2022/05/07 08:50:18;;;;;;;28.63;17.60;;;18.90;99.90;;;;;;5093366;28;20111;-55
2022/05/07 08:52:44;;;;;;;24.45;17.00;;;18.80;99.90;;;;;;5093321;28;20469;-54
2022/05/07 08:55:15;;;;;;;27.52;16.33;;;19.00;99.90;;;;;;5093566;28;20257;-55
2022/05/07 08:57:44;;;;;;;27.58;17.10;;;19.40;99.90;;;;;;5093858;28;20542;-55
2022/05/07 09:00:10;;;;;;;24.63;16.23;;;19.80;99.90;;;;;;5093619;28;20356;-55
2022/05/07 09:02:42;;;;;;;23.80;16.02;;;20.20;99.90;;;;;;5093324;28;20051;-55
2022/05/07 09:05:13;;;;;;;23.75;15.65;;;20.70;99.90;;;;;;5093128;28;20031;-56
2022/05/07 09:07:41;;;;;;;25.95;15.88;;;20.60;99.90;;;;;;5090580;28;20501;-55
2022/05/07 09:10:13;;;;;;;26.35;16.77;;;20.90;99.90;;;;;;5093230;28;20539;-56
2022/05/07 09:12:39;;;;;;;24.95;15.43;;;20.70;99.90;;;;;;5092281;28;20085;-56
2022/05/07 09:15:07;;;;;;;23.45;16.38;;;21.60;99.90;;;;;;5091770;28;20024;-55
2022/05/07 09:17:33;;;;;;;21.92;15.70;;;22.00;99.90;;;;;;5073670;28;20067;-56
2022/05/07 09:20:13;;;;;;;26.83;16.63;;;21.80;99.90;;;;;;5073201;28;20078;-56
2022/05/07 09:22:55;;;;;;;108.78;63.75;;;21.30;99.90;;;;;;5073128;28;20021;-56
2022/05/07 09:25:22;;;;;;;23.88;15.88;;;21.40;99.90;;;;;;5072222;28;20116;-56
2022/05/07 09:27:54;;;;;;;25.50;15.80;;;20.50;99.90;;;;;;5071512;28;20024;-56
2022/05/07 09:30:27;;;;;;;23.83;16.08;;;21.00;99.90;;;;;;5072383;28;20035;-56
2022/05/07 09:32:57;;;;;;;27.13;16.20;;;21.00;99.90;;;;;;5072837;28;20041;-56
2022/05/07 09:38:13;;;;;;;24.83;16.42;;;21.80;99.90;;;;;;5073239;28;20032;-56
2022/05/07 09:40:42;;;;;;;26.90;16.95;;;22.10;99.90;;;;;;5070964;28;20405;-56
2022/05/07 09:43:13;;;;;;;26.38;15.70;;;22.60;99.90;;;;;;5072621;28;20039;-56
2022/05/07 09:45:40;;;;;;;24.08;15.23;;;22.60;99.90;;;;;;5072666;28;20031;-56
2022/05/07 09:48:07;;;;;;;25.70;15.70;;;22.70;99.90;;;;;;5072222;28;20363;-56
2022/05/07 09:58:47;;;;;;;19.55;12.90;;;23.40;99.90;;;;;;5072299;28;20116;-56
2022/05/07 10:01:28;;;;;;;23.52;12.43;;;23.60;99.90;;;;;;5072299;28;20112;-55
2022/05/07 10:04:13;;;;;;;16.73;11.95;;;22.90;99.90;;;;;;5072135;28;20028;-55
2022/05/07 10:07:00;;;;;;;18.73;12.63;;;22.80;99.90;;;;;;5072351;28;20028;-56
2022/05/07 10:09:52;;;;;;;19.00;13.50;;;23.00;99.80;;;;;;5072151;28;20031;-56
2022/05/07 10:12:21;;;;;;;23.23;12.68;;;22.80;99.70;;;;;;5072229;28;20024;-56
2022/05/07 10:14:47;;;;;;;19.58;11.70;;;23.40;99.80;;;;;;5070573;28;20035;-56
2022/05/07 10:17:14;;;;;;;21.00;12.63;;;24.10;98.60;;;;;;5071909;28;20025;-56
2022/05/07 10:19:43;;;;;;;13.98;11.50;;;24.20;97.50;;;;;;5071518;28;20024;-56
2022/05/07 10:22:38;;;;;;;17.30;12.70;;;24.50;97.30;;;;;;5071448;28;20072;-56
2022/05/07 10:25:11;;;;;;;17.33;11.73;;;24.60;96.10;;;;;;5061793;28;20374;-56
2022/05/07 10:27:49;;;;;;;15.57;11.98;;;24.70;95.80;;;;;;5071603;28;20040;-57
2022/05/07 10:30:16;;;;;;;16.52;12.00;;;25.20;95.20;;;;;;5071842;28;20480;-57
2022/05/07 10:32:46;;;;;;;18.95;12.02;;;25.70;94.50;;;;;;5071618;28;20024;-57
2022/05/07 10:35:14;;;;;;;14.10;12.23;;;26.40;93.40;;;;;;5071285;28;20051;-57
2022/05/07 10:37:41;;;;;;;18.90;12.60;;;26.80;90.70;;;;;;5070197;28;20032;-58
2022/05/07 10:40:13;;;;;;;15.38;12.45;;;26.80;91.20;;;;;;5071360;28;20036;-57
2022/05/07 10:42:41;;;;;;;17.75;13.95;;;26.30;92.10;;;;;;5071792;28;20028;-57
2022/05/07 10:45:22;;;;;;;19.95;13.20;;;26.60;90.90;;;;;;5071123;28;20328;-57
2022/05/07 10:47:55;;;;;;;22.35;13.93;;;27.50;90.70;;;;;;5071534;28;20035;-56
2022/05/07 10:50:22;;;;;;;19.08;14.77;;;27.70;88.70;;;;;;5071090;28;20020;-57
2022/05/07 10:52:57;;;;;;;20.00;14.75;;;27.50;88.90;;;;;;5071296;28;20359;-56
2022/05/07 10:55:27;;;;;;;20.73;16.80;;;28.00;88.60;;;;;;5070979;28;20090;-56
2022/05/07 10:57:56;;;;;;;23.98;18.48;;;27.20;88.00;;;;;;5070726;28;20021;-56
2022/05/07 11:00:23;;;;;;;27.27;19.27;;;25.50;91.10;;;;;;5070302;28;20389;-56
2022/05/07 11:02:55;;;;;;;27.42;20.70;;;24.80;92.30;;;;;;5071116;28;20389;-56
2022/05/07 11:05:32;;;;;;;25.05;20.58;;;24.50;92.80;;;;;;5071209;28;20067;-56
2022/05/07 11:07:58;;;;;;;29.25;21.00;;;24.40;93.50;;;;;;5070692;28;20024;-57
2022/05/07 11:10:24;;;;;;;27.65;21.67;;;25.00;92.50;;;;;;5070451;28;20050;-56
2022/05/07 11:12:50;;;;;;;29.27;22.27;;;24.60;91.90;;;;;;5070693;28;20070;-56
2022/05/07 11:15:25;;;;;;;25.60;21.27;;;24.60;91.90;;;;;;5071309;28;20098;-56
2022/05/07 11:17:51;;;;;;;26.02;22.63;;;24.90;91.50;;;;;;5070559;28;20677;-56
2022/05/07 11:20:38;;;;;;;29.15;26.27;;;26.00;90.30;;;;;;5070995;28;20028;-56
2022/05/07 11:23:04;;;;;;;25.98;22.95;;;27.30;87.70;;;;;;5070998;28;20067;-56
2022/05/07 11:25:30;;;;;;;27.73;24.92;;;27.30;86.90;;;;;;5070844;28;20052;-56
2022/05/07 11:27:57;;;;;;;25.35;22.92;;;27.20;85.00;;;;;;5070692;28;20021;-56
2022/05/07 11:30:23;;;;;;;21.80;19.40;;;27.20;83.00;;;;;;5070268;28;20040;-56
2022/05/07 11:32:49;;;;;;;19.77;17.75;;;27.60;81.30;;;;;;5070916;28;20028;-56
2022/05/07 11:35:15;;;;;;;19.33;16.33;;;27.40;81.70;;;;;;5070784;28;20064;-57
2022/05/07 11:37:45;;;;;;;19.67;17.52;;;27.30;83.00;;;;;;5070691;28;20056;-56
2022/05/07 11:40:26;;;;;;;18.48;16.50;;;27.20;85.00;;;;;;5070495;28;20025;-57
2022/05/07 11:45:25;;;;;;;14.95;13.43;;;28.10;82.50;;;;;;5070549;28;20416;-57
2022/05/07 11:45:37;;;;;;;14.13;12.10;;;28.40;81.20;;;;;;5070381;28;20028;-57
2022/05/07 11:48:09;;;;;;;18.08;16.17;;;27.50;82.90;;;;;;5070132;28;20035;-56
2022/05/07 11:50:52;;;;;;;18.90;17.00;;;26.00;85.10;;;;;;5070400;28;20032;-56
2022/05/07 11:53:22;;;;;;;19.80;17.85;;;24.20;89.60;;;;;;5070436;28;20024;-56
2022/05/07 11:55:49;;;;;;;20.45;18.48;;;23.60;90.80;;;;;;5070557;28;20035;-56
2022/05/07 11:58:23;;;;;;;18.20;16.50;;;23.60;91.00;;;;;;5070053;28;20027;-56
2022/05/07 12:00:51;;;;;;;16.48;14.98;;;23.20;91.80;;;;;;5070428;28;20393;-56
2022/05/07 12:03:27;;;;;;;16.83;15.15;;;23.30;92.60;;;;;;5070279;28;20552;-55
2022/05/07 12:05:55;;;;;;;18.08;14.23;;;23.20;92.90;;;;;;5069045;28;20397;-55
2022/05/07 12:08:30;;;;;;;17.95;14.43;;;23.20;92.80;;;;;;5070125;28;20077;-56
2022/05/07 12:10:55;;;;;;;16.67;14.90;;;22.90;92.90;;;;;;5070178;28;20027;-55
2022/05/07 12:13:22;;;;;;;19.48;15.73;;;22.90;93.10;;;;;;5069811;28;20032;-56
2022/05/07 12:18:33;;;;;;;18.10;16.25;;;22.50;94.70;;;;;;5070334;28;20035;-56
2022/05/07 12:20:59;;;;;;;18.20;16.30;;;22.40;95.30;;;;;;5050477;28;20017;-56
2022/05/07 12:31:37;;;;;;;14.32;12.65;;;22.00;96.40;;;;;;5049941;28;20102;-56
2022/05/07 12:34:04;;;;;;;17.70;13.75;;;22.10;96.30;;;;;;5049471;28;20053;-56
2022/05/07 12:36:31;;;;;;;19.27;15.82;;;22.00;98.50;;;;;;5049662;28;20103;-56
2022/05/07 12:38:59;;;;;;;19.00;17.00;;;21.80;99.90;;;;;;5049741;28;20025;-56
2022/05/07 12:41:29;;;;;;;20.50;18.52;;;21.90;99.90;;;;;;5050019;28;20539;-56
2022/05/07 12:43:56;;;;;;;20.40;18.27;;;22.00;99.90;;;;;;5052989;28;20024;-56
2022/05/07 12:46:24;;;;;;;21.27;18.60;;;21.90;99.90;;;;;;5068715;28;20029;-56
2022/05/07 12:48:50;;;;;;;20.88;18.33;;;22.00;99.90;;;;;;5053319;28;20453;-56
2022/05/07 12:51:15;;;;;;;20.85;17.15;;;22.10;99.90;;;;;;5053607;28;20100;-56
2022/05/07 12:53:41;;;;;;;18.67;16.45;;;22.10;99.90;;;;;;5053691;28;20105;-56
2022/05/07 12:56:07;;;;;;;18.35;14.98;;;22.10;99.90;;;;;;5053183;28;20061;-55
2022/05/07 12:58:34;;;;;;;18.13;14.93;;;21.90;99.00;;;;;;5053322;28;20075;-55
2022/05/07 13:01:00;;;;;;;27.60;15.35;;;21.80;98.90;;;;;;5053639;28;20070;-56
2022/05/07 13:03:26;;;;;;;22.80;15.30;;;22.00;98.50;;;;;;5068348;28;20269;-55
2022/05/07 13:05:52;;;;;;;17.00;15.15;;;22.10;98.20;;;;;;5053003;28;20536;-55
2022/05/07 13:08:18;;;;;;;15.48;13.82;;;22.00;98.00;;;;;;5053076;28;20021;-55
2022/05/07 13:10:43;;;;;;;17.35;13.38;;;21.90;98.20;;;;;;5053193;28;20413;-55
2022/05/07 13:13:09;;;;;;;15.75;13.43;;;22.00;97.90;;;;;;5053234;28;20493;-55